createdAt,value
2022-11-15T00:00:37.837Z,19.10
2022-11-15T00:03:42.160Z,22.58
2022-11-15T00:06:46.432Z,24.40
2022-11-15T00:09:50.722Z,23.10
2022-11-15T00:12:55.267Z,22.95
2022-11-15T00:16:01.559Z,24.60
2022-11-15T00:19:06.053Z,25.33
2022-11-15T00:22:10.317Z,24.02
2022-11-15T00:25:14.915Z,24.73
2022-11-15T00:28:19.312Z,22.67
2022-11-15T00:31:23.626Z,23.63
2022-11-15T00:34:28.267Z,25.00
2022-11-15T00:37:32.546Z,24.40
2022-11-15T00:40:36.661Z,26.30
2022-11-15T00:43:43.076Z,24.55
2022-11-15T00:46:47.151Z,22.85
2022-11-15T00:49:51.257Z,24.95
2022-11-15T00:52:55.651Z,24.23
2022-11-15T00:56:00.120Z,24.70
2022-11-15T00:59:04.379Z,25.58
2022-11-15T01:02:08.851Z,24.77
2022-11-15T01:05:13.114Z,24.88
2022-11-15T01:08:17.354Z,24.58
2022-11-15T01:11:21.339Z,26.85
2022-11-15T01:14:25.879Z,25.88
2022-11-15T01:17:31.304Z,25.30
2022-11-15T01:20:35.448Z,25.00
2022-11-15T01:23:40.224Z,25.35
2022-11-15T01:26:44.413Z,24.77
2022-11-15T01:29:48.795Z,24.77
2022-11-15T01:32:53.129Z,25.05
2022-11-15T01:35:57.460Z,24.90
2022-11-15T01:39:01.701Z,23.80
2022-11-15T01:42:05.734Z,24.27
2022-11-15T01:45:16.243Z,23.60
2022-11-15T01:48:21.083Z,24.35
2022-11-15T01:51:29.180Z,23.75
2022-11-15T01:54:33.684Z,24.30
2022-11-15T01:57:39.492Z,25.08
2022-11-15T02:00:43.834Z,24.20
2022-11-15T02:04:16.034Z,24.25
2022-11-15T02:07:22.768Z,24.38
2022-11-15T02:10:27.029Z,29.63
2022-11-15T02:13:31.851Z,26.52
2022-11-15T02:16:41.432Z,25.73
2022-11-15T02:20:06.995Z,24.73
2022-11-15T02:23:43.563Z,24.85
2022-11-15T02:27:22.420Z,24.60
2022-11-15T02:30:48.692Z,26.73
2022-11-15T02:34:22.156Z,26.17
2022-11-15T02:37:37.482Z,26.35
2022-11-15T02:40:53.079Z,26.85
2022-11-15T02:44:20.004Z,26.85
2022-11-15T02:47:28.032Z,24.95
2022-11-15T02:50:33.737Z,26.45
2022-11-15T02:53:38.024Z,26.95
2022-11-15T02:56:45.996Z,27.77
2022-11-15T03:00:10.415Z,27.25
2022-11-15T03:03:48.627Z,27.95
2022-11-15T03:07:00.704Z,27.50
2022-11-15T03:10:13.262Z,27.87
2022-11-15T03:13:27.199Z,28.15
2022-11-15T03:16:38.969Z,28.05
2022-11-15T03:19:47.597Z,27.35
2022-11-15T03:22:53.654Z,29.60
2022-11-15T03:25:59.347Z,28.83
2022-11-15T03:29:17.595Z,26.98
2022-11-15T03:32:26.650Z,26.48
2022-11-15T03:35:42.130Z,27.98
2022-11-15T03:38:46.769Z,27.75
2022-11-15T03:42:23.500Z,27.20
2022-11-15T03:45:42.416Z,28.15
2022-11-15T03:49:06.772Z,29.35
2022-11-15T03:52:12.033Z,26.90
2022-11-15T03:55:21.700Z,26.98
2022-11-15T03:58:26.024Z,25.67
2022-11-15T04:01:30.437Z,26.27
2022-11-15T04:04:34.716Z,24.23
2022-11-15T04:07:39.065Z,24.02
2022-11-15T04:10:43.816Z,23.75
2022-11-15T04:13:48.184Z,24.40
2022-11-15T04:16:52.620Z,24.85
2022-11-15T04:20:15.454Z,24.77
2022-11-15T04:23:40.802Z,22.73
2022-11-15T04:26:45.238Z,23.83
2022-11-15T04:29:49.532Z,22.38
2022-11-15T04:32:54.151Z,22.85
2022-11-15T04:36:16.701Z,21.40
2022-11-15T04:39:21.125Z,25.60
2022-11-15T04:42:25.833Z,23.92
2022-11-15T04:45:30.520Z,23.30
2022-11-15T04:48:34.854Z,23.33
2022-11-15T04:51:39.101Z,21.83
2022-11-15T04:54:43.683Z,22.35
2022-11-15T04:57:47.831Z,22.30
2022-11-15T05:00:52.368Z,20.88
2022-11-15T05:04:15.283Z,20.60
2022-11-15T05:07:19.587Z,19.25
2022-11-15T05:10:23.998Z,19.27
2022-11-15T05:13:28.344Z,19.80
2022-11-15T05:16:32.835Z,19.77
2022-11-15T05:19:37.934Z,20.27
2022-11-15T05:22:42.300Z,18.55
2022-11-15T05:25:46.375Z,20.52
2022-11-15T05:28:58.450Z,18.20
2022-11-15T05:32:04.192Z,18.75
2022-11-15T05:35:13.389Z,17.48
2022-11-15T05:38:17.632Z,18.75
2022-11-15T05:41:47.350Z,18.70
2022-11-15T05:44:51.569Z,18.40
2022-11-15T05:47:59.618Z,17.55
2022-11-15T05:51:05.699Z,18.88
2022-11-15T05:54:11.045Z,19.80
2022-11-15T05:57:15.427Z,17.30
2022-11-15T06:00:20.010Z,18.70
2022-11-15T06:03:24.681Z,17.63
2022-11-15T06:06:29.957Z,16.95
2022-11-15T06:09:34.068Z,16.67
2022-11-15T06:12:38.278Z,16.67
2022-11-15T06:15:42.666Z,16.17
2022-11-15T06:18:47.658Z,17.10
2022-11-15T06:21:51.895Z,16.92
2022-11-15T06:24:56.940Z,16.83
2022-11-15T06:28:03.292Z,16.35
2022-11-15T06:31:12.423Z,16.35
2022-11-15T06:34:16.530Z,15.88
2022-11-15T06:37:20.692Z,16.60
2022-11-15T06:40:25.104Z,16.05
2022-11-15T06:43:29.551Z,15.98
2022-11-15T06:46:33.784Z,16.48
2022-11-15T06:49:37.874Z,15.77
2022-11-15T06:52:42.168Z,16.70
2022-11-15T06:55:46.566Z,16.38
2022-11-15T06:58:50.913Z,16.08
2022-11-15T07:01:55.299Z,14.85
2022-11-15T07:04:59.410Z,16.13
2022-11-15T07:08:03.994Z,15.15
2022-11-15T07:11:09.003Z,14.65
2022-11-15T07:14:13.287Z,15.73
2022-11-15T07:17:17.623Z,14.85
2022-11-15T07:20:22.095Z,14.35
2022-11-15T07:23:26.444Z,14.13
2022-11-15T07:26:31.037Z,14.35
2022-11-15T07:29:35.292Z,13.55
2022-11-15T07:32:39.423Z,14.23
2022-11-15T07:35:43.747Z,12.13
2022-11-15T07:38:47.853Z,12.70
2022-11-15T07:42:12.200Z,12.57
2022-11-15T07:45:16.267Z,13.20
2022-11-15T07:48:21.079Z,12.77
2022-11-15T07:51:25.055Z,12.73
2022-11-15T07:54:29.212Z,12.68
2022-11-15T07:57:33.399Z,13.80
2022-11-15T08:00:38.244Z,14.70
2022-11-15T08:03:42.835Z,13.77
2022-11-15T08:06:47.279Z,13.50
2022-11-15T08:09:51.326Z,14.80
2022-11-15T08:13:04.025Z,13.43
2022-11-15T08:16:09.345Z,12.25
2022-11-15T08:19:13.186Z,11.82
2022-11-15T08:22:18.126Z,13.45
2022-11-15T08:25:22.591Z,11.73
2022-11-15T08:28:26.941Z,12.18
2022-11-15T08:31:31.191Z,14.85
2022-11-15T08:34:35.228Z,14.20
2022-11-15T08:37:39.550Z,13.70
2022-11-15T08:40:44.022Z,12.77
2022-11-15T08:43:48.502Z,11.73
2022-11-15T08:46:53.204Z,12.95
2022-11-15T08:49:57.280Z,12.35
2022-11-15T08:53:09.518Z,13.50
2022-11-15T08:56:15.560Z,11.98
2022-11-15T08:59:20.020Z,11.52
2022-11-15T09:02:24.616Z,11.57
2022-11-15T09:05:28.902Z,11.10
2022-11-15T09:08:47.106Z,10.55
2022-11-15T09:11:52.521Z,9.77
2022-11-15T09:14:56.659Z,9.57
2022-11-15T09:18:01.175Z,8.93
2022-11-15T09:21:05.628Z,8.68
2022-11-15T09:24:10.047Z,8.57
2022-11-15T09:27:14.520Z,8.13
2022-11-15T09:30:18.704Z,7.43
2022-11-15T09:33:22.994Z,8.23
2022-11-15T09:36:27.453Z,7.25
2022-11-15T09:39:32.384Z,7.03
2022-11-15T09:43:07.043Z,6.75
2022-11-15T09:46:34.491Z,6.70
2022-11-15T09:49:38.568Z,7.10
2022-11-15T09:52:46.378Z,6.13
2022-11-15T09:56:01.141Z,7.05
2022-11-15T09:59:14.269Z,6.15
2022-11-15T10:04:55.121Z,5.72
2022-11-15T10:08:11.834Z,6.10
2022-11-15T10:11:36.265Z,5.90
2022-11-15T10:14:18.073Z,5.43
2022-11-15T10:17:41.275Z,5.35
2022-11-15T10:23:19.311Z,4.25
2022-11-15T10:26:10.156Z,4.25
2022-11-15T10:28:55.692Z,4.95
2022-11-15T10:31:42.361Z,4.72
2022-11-15T10:34:27.990Z,4.57
2022-11-15T10:37:13.338Z,5.00
2022-11-15T10:40:07.476Z,4.57
2022-11-15T10:43:13.752Z,4.43
2022-11-15T10:46:44.943Z,4.40
2022-11-15T10:49:32.359Z,4.20
2022-11-15T10:52:20.705Z,3.97
2022-11-15T10:55:17.983Z,3.80
2022-11-15T10:58:20.908Z,4.20
2022-11-15T11:04:03.487Z,3.28
2022-11-15T11:06:53.279Z,3.90
2022-11-15T11:09:43.191Z,3.58
2022-11-15T11:12:32.423Z,3.65
2022-11-15T11:15:19.423Z,3.17
2022-11-15T11:18:16.355Z,2.97
2022-11-15T11:21:10.560Z,3.03
2022-11-15T11:24:05.987Z,2.70
2022-11-15T11:27:06.711Z,2.92
2022-11-15T11:30:01.843Z,3.15
2022-11-15T11:33:06.515Z,2.50
2022-11-15T11:36:07.746Z,2.55
2022-11-15T11:38:55.914Z,2.72
2022-11-15T11:41:50.731Z,2.50
2022-11-15T11:44:59.125Z,2.58
2022-11-15T11:48:07.958Z,2.30
2022-11-15T11:50:58.044Z,1.80
2022-11-15T11:53:58.232Z,2.05
2022-11-15T11:56:46.334Z,1.98
2022-11-15T11:59:44.288Z,1.80
2022-11-15T12:02:35.772Z,1.77
2022-11-15T12:05:33.335Z,1.80
2022-11-15T12:08:32.997Z,1.50
2022-11-15T12:11:31.648Z,1.90
2022-11-15T12:14:34.884Z,1.65
2022-11-15T12:17:27.552Z,1.50
2022-11-15T12:23:13.638Z,1.42
2022-11-15T12:26:06.735Z,1.15
2022-11-15T12:29:08.825Z,1.38
2022-11-15T12:31:59.121Z,1.33
2022-11-15T12:34:50.409Z,1.67
2022-11-15T12:37:38.967Z,1.33
2022-11-15T12:40:33.902Z,1.50
2022-11-15T12:43:34.237Z,1.67
2022-11-15T12:46:30.444Z,1.30
2022-11-15T12:49:24.719Z,1.70
2022-11-15T12:52:11.005Z,1.20
2022-11-15T12:54:58.363Z,1.27
2022-11-15T12:57:43.959Z,1.40
2022-11-15T13:00:32.437Z,1.40
2022-11-15T13:03:21.365Z,1.38
2022-11-15T13:06:09.100Z,1.17
2022-11-15T13:08:54.390Z,1.20
2022-11-15T13:11:49.036Z,1.10
2022-11-15T13:14:43.436Z,1.00
2022-11-15T13:17:38.650Z,1.17
2022-11-15T13:20:27.397Z,1.00
2022-11-15T13:23:17.557Z,1.00
2022-11-15T13:26:19.028Z,0.90
2022-11-15T13:29:04.400Z,1.08
2022-11-15T13:31:50.070Z,1.08
2022-11-15T13:34:51.128Z,1.42
2022-11-15T13:37:37.474Z,1.17
2022-11-15T13:40:31.108Z,1.13
2022-11-15T13:43:22.494Z,1.00
2022-11-15T13:46:14.003Z,0.90
2022-11-15T13:49:09.615Z,1.00
2022-11-15T13:51:55.899Z,0.85
2022-11-15T13:55:15.482Z,1.05
2022-11-15T13:58:07.616Z,0.88
2022-11-15T14:01:02.977Z,1.20
2022-11-15T14:03:58.267Z,1.13
2022-11-15T14:06:54.342Z,1.00
2022-11-15T14:09:41.241Z,1.10
2022-11-15T14:12:30.893Z,1.00
2022-11-15T14:15:35.789Z,0.93
2022-11-15T14:18:43.672Z,0.90
2022-11-15T14:21:29.056Z,1.00
2022-11-15T14:24:20.500Z,1.10
2022-11-15T14:27:27.132Z,1.73
2022-11-15T14:30:17.400Z,1.10
2022-11-15T14:33:03.621Z,1.17
2022-11-15T14:35:49.587Z,1.00
2022-11-15T14:38:35.850Z,1.05
2022-11-15T14:41:23.848Z,1.10
2022-11-15T14:44:11.894Z,1.10
2022-11-15T14:46:57.424Z,0.80
2022-11-15T14:49:42.891Z,1.40
2022-11-15T14:52:34.257Z,1.13
2022-11-15T14:55:24.167Z,1.05
2022-11-15T14:58:10.130Z,1.27
2022-11-15T15:00:55.613Z,1.13
2022-11-15T15:03:41.304Z,1.30
2022-11-15T15:06:27.100Z,1.40
2022-11-15T15:09:12.191Z,1.27
2022-11-15T15:11:59.760Z,1.50
2022-11-15T15:14:49.254Z,1.65
2022-11-15T15:17:34.472Z,1.33
2022-11-15T15:20:20.095Z,1.30
2022-11-15T15:23:05.352Z,1.38
2022-11-15T15:25:51.432Z,1.10
2022-11-15T15:28:37.512Z,1.33
2022-11-15T15:31:22.999Z,1.30
2022-11-15T15:34:13.674Z,1.20
2022-11-15T15:37:27.136Z,1.30
2022-11-15T15:40:18.994Z,1.00
2022-11-15T15:43:04.443Z,1.20
2022-11-15T15:45:49.611Z,1.48
2022-11-15T15:48:38.073Z,1.23
2022-11-15T15:51:23.261Z,1.00
2022-11-15T15:54:08.670Z,1.17
2022-11-15T15:56:56.259Z,1.30
2022-11-15T15:59:42.119Z,1.08
2022-11-15T16:02:27.552Z,1.02
2022-11-15T16:05:13.518Z,1.15
2022-11-15T16:07:58.710Z,1.10
2022-11-15T16:10:44.134Z,1.30
2022-11-15T16:13:29.594Z,1.08
2022-11-15T16:16:15.466Z,1.20
2022-11-15T16:19:01.735Z,1.00
2022-11-15T16:21:47.557Z,1.17
2022-11-15T16:24:32.836Z,1.15
2022-11-15T16:27:21.159Z,0.95
2022-11-15T16:30:15.238Z,1.02
2022-11-15T16:33:01.464Z,1.25
2022-11-15T16:35:48.755Z,1.40
2022-11-15T16:38:34.869Z,1.20
2022-11-15T16:41:20.279Z,1.20
2022-11-15T16:44:05.819Z,0.90
2022-11-15T16:46:52.141Z,0.88
2022-11-15T16:49:37.994Z,1.10
2022-11-15T16:52:23.397Z,1.10
2022-11-15T16:55:09.141Z,0.95
2022-11-15T16:57:55.204Z,1.10
2022-11-15T17:00:40.847Z,1.00
2022-11-15T17:03:26.276Z,1.00
2022-11-15T17:06:12.826Z,1.10
2022-11-15T17:08:58.258Z,1.02
2022-11-15T17:11:44.213Z,1.02
2022-11-15T17:14:29.636Z,1.23
2022-11-15T17:17:15.174Z,1.30
2022-11-15T17:20:00.475Z,1.10
2022-11-15T17:22:47.350Z,1.02
2022-11-15T17:25:32.724Z,1.17
2022-11-15T17:28:18.634Z,1.20
2022-11-15T17:31:08.182Z,1.25
2022-11-15T17:33:54.014Z,1.25
2022-11-15T17:36:39.286Z,1.38
2022-11-15T17:39:25.063Z,1.75
2022-11-15T17:42:10.109Z,1.63
2022-11-15T17:44:55.592Z,1.45
2022-11-15T17:47:40.814Z,1.67
2022-11-15T17:50:26.271Z,1.98
2022-11-15T17:53:11.854Z,1.60
2022-11-15T17:56:27.579Z,2.10
2022-11-15T17:59:15.938Z,1.75
2022-11-15T18:02:06.288Z,1.75
2022-11-15T18:04:51.280Z,1.80
2022-11-15T18:07:36.609Z,2.20
2022-11-15T18:10:22.180Z,1.90
2022-11-15T18:13:09.521Z,1.90
2022-11-15T18:16:02.430Z,2.28
2022-11-15T18:18:48.467Z,2.50
2022-11-15T18:21:34.457Z,2.58
2022-11-15T18:24:19.762Z,2.90
2022-11-15T18:27:06.443Z,2.60
2022-11-15T18:29:51.593Z,2.88
2022-11-15T18:32:37.067Z,3.15
2022-11-15T18:35:22.521Z,2.90
2022-11-15T18:38:07.975Z,3.42
2022-11-15T18:40:53.246Z,3.03
2022-11-15T18:43:39.693Z,2.90
2022-11-15T18:46:27.264Z,2.95
2022-11-15T18:49:15.118Z,3.40
2022-11-15T18:52:00.317Z,3.33
2022-11-15T18:54:45.554Z,3.45
2022-11-15T18:57:31.117Z,4.68
2022-11-15T19:00:16.931Z,4.25
2022-11-15T19:03:02.439Z,3.90
2022-11-15T19:05:47.809Z,3.58
2022-11-15T19:08:37.611Z,4.00
2022-11-15T19:11:31.643Z,4.28
2022-11-15T19:14:18.064Z,4.30
2022-11-15T19:17:03.489Z,4.82
2022-11-15T19:19:48.755Z,4.65
2022-11-15T19:22:34.274Z,4.45
2022-11-15T19:25:19.679Z,4.47
2022-11-15T19:28:05.519Z,4.90
2022-11-15T19:30:50.968Z,4.65
2022-11-15T19:33:36.913Z,4.82
2022-11-15T19:36:26.825Z,4.70
2022-11-15T19:39:13.461Z,5.22
2022-11-15T19:41:58.747Z,4.97
2022-11-15T19:44:44.108Z,5.28
2022-11-15T19:47:30.347Z,5.50
2022-11-15T19:50:15.832Z,5.85
2022-11-15T19:53:00.990Z,6.40
2022-11-15T19:55:57.146Z,6.15
2022-11-15T19:58:42.955Z,6.15
2022-11-15T20:01:30.178Z,6.32
2022-11-15T20:04:15.971Z,6.78
2022-11-15T20:07:01.688Z,6.25
2022-11-15T20:09:47.151Z,7.30
2022-11-15T20:12:32.573Z,6.95
2022-11-15T20:15:17.931Z,6.82
2022-11-15T20:18:04.191Z,6.65
2022-11-15T20:20:50.483Z,6.90
2022-11-15T20:23:35.773Z,8.13
2022-11-15T20:26:21.422Z,8.02
2022-11-15T20:29:08.460Z,7.10
2022-11-15T20:31:53.809Z,7.43
2022-11-15T20:34:39.315Z,7.78
2022-11-15T20:37:24.767Z,7.80
2022-11-15T20:40:10.887Z,7.53
2022-11-15T20:42:56.326Z,7.57
2022-11-15T20:45:50.338Z,7.85
2022-11-15T20:48:35.844Z,8.90
2022-11-15T20:51:21.583Z,8.18
2022-11-15T20:54:06.894Z,8.07
2022-11-15T20:56:52.521Z,7.65
2022-11-15T20:59:37.977Z,8.25
2022-11-15T21:02:23.442Z,8.80
2022-11-15T21:05:09.038Z,9.18
2022-11-15T21:07:54.225Z,8.32
2022-11-15T21:10:59.301Z,8.70
2022-11-15T21:13:44.811Z,8.73
2022-11-15T21:16:30.354Z,8.35
2022-11-15T21:19:16.368Z,8.43
2022-11-15T21:22:02.290Z,8.63
2022-11-15T21:24:47.545Z,8.40
2022-11-15T21:27:33.023Z,8.90
2022-11-15T21:30:18.335Z,8.68
2022-11-15T21:33:03.774Z,9.50
2022-11-15T21:35:50.520Z,8.75
2022-11-15T21:38:36.135Z,9.05
2022-11-15T21:41:21.911Z,8.77
2022-11-15T21:44:07.127Z,8.35
2022-11-15T21:46:52.693Z,8.77
2022-11-15T21:49:38.199Z,8.50
2022-11-15T21:52:23.844Z,8.10
2022-11-15T21:55:09.663Z,8.75
2022-11-15T21:57:54.734Z,8.40
2022-11-15T22:00:58.998Z,10.13
2022-11-15T22:03:44.490Z,9.25
2022-11-15T22:06:29.761Z,9.27
2022-11-15T22:09:15.402Z,9.18
2022-11-15T22:12:00.905Z,10.05
2022-11-15T22:14:46.347Z,9.27
2022-11-15T22:17:50.402Z,9.15
2022-11-15T22:20:44.882Z,9.20
2022-11-15T22:23:32.588Z,8.60
2022-11-15T22:26:23.517Z,8.75
2022-11-15T22:29:09.538Z,9.40
2022-11-15T22:31:54.924Z,9.60
2022-11-15T22:34:40.372Z,9.40
2022-11-15T22:37:25.768Z,9.65
2022-11-15T22:40:11.354Z,8.77
2022-11-15T22:42:56.927Z,9.23
2022-11-15T22:45:51.599Z,9.90
2022-11-15T22:48:39.009Z,9.25
2022-11-15T22:51:24.432Z,9.30
2022-11-15T22:54:09.772Z,9.43
2022-11-15T22:56:55.291Z,9.50
2022-11-15T22:59:42.044Z,11.10
2022-11-15T23:02:27.246Z,10.23
2022-11-15T23:05:12.812Z,10.18
2022-11-15T23:07:58.215Z,10.93
2022-11-15T23:11:02.464Z,11.00
2022-11-15T23:13:51.706Z,10.55
2022-11-15T23:16:36.787Z,10.25
2022-11-15T23:19:22.163Z,9.70
2022-11-15T23:22:36.903Z,9.85
2022-11-15T23:25:21.884Z,10.68
2022-11-15T23:28:07.352Z,10.25
2022-11-15T23:31:11.332Z,10.00
2022-11-15T23:33:59.606Z,10.40
2022-11-15T23:36:44.687Z,9.77
2022-11-15T23:39:30.583Z,10.00
2022-11-15T23:42:19.781Z,9.85
2022-11-15T23:45:06.176Z,10.10
2022-11-15T23:47:55.728Z,9.68
2022-11-15T23:50:46.128Z,10.10
2022-11-15T23:53:31.484Z,9.75
2022-11-15T23:56:18.576Z,9.82
2022-11-15T23:59:04.794Z,9.93
